The Dalles, OR (97058)

5:54 PM PST on February 22, 2017 (GMT -0800)
Cooper Barn, The Dalles, OR | | Change Station

Elev 644 ft 45.58 °N, 121.19 °W | Updated 3 minutes ago

Partly Cloudy
Partly Cloudy
41.0 °F
Feels Like 41 °F
N
1.8
Wind Variable Wind from WSW
Gusts 5.4 mph

Today
High -- | Low -- °F
--% Chance of Precip.
Yesterday
High -- | Low -- °F
Precip. -- in
Pressure 30.12 in
Visibility 10.0 miles
Clouds Clear
Windchill 41 °F
Dew Point 27 °F
Humidity 58%
Rainfall 0.00 in
Snow Depth Not available.
6:54 AM 5:42 PM
Waning Crescent, 13% visible
METAR KDLS 230053Z AUTO 28011KT 10SM CLR 09/M03 A3011 RMK AO2 SLP198 T00891028
Pressure 30.12 in
Visibility 10.0 miles
Clouds Clear
Windchill 41 °F
Dew Point 27 °F
Humidity 58%
Rainfall 0.00 in
Snow Depth Not available.
6:54 AM 5:42 PM
Waning Crescent, 13% visible
METAR KDLS 230053Z AUTO 28011KT 10SM CLR 09/M03 A3011 RMK AO2 SLP198 T00891028

Get Your Daily Forecast Email!

Thanks for signing up!

Be on the lookout for a verification email in your inbox.

You'll start receiving the daily forecast at 8 AM.

×

10-Day Weather Forecast

Almanac

Astronomy

Feb. 22, 2017 Rise Set
Actual Time
Civil Twilight
Nautical Twilight
Astronomical Twilight
Moon
Length of Visible Light
Length of Day
Tomorrow will be .
, % of the Moon is Illuminated

Today's Extremes

State Highs State Lows

Community

WunderPhotos

Upload Photos

1,962,540 photos uploaded!

WunderBlog® & News

Nearby

Air Quality

  Air Quality AQ Index Pollutant
Not available.

Snow Depth

Station Depth Elevation

Earthquake Activity

City Distance Mag. Time & Date
Minimum magnitude displayed is 2.5.

Coastal Water Temperatures

Place Temperature

Stations

Nearby Weather Stations

Station Location Temp. Windchill Dew Point Humidity Wind Precip. Elev Updated Type
                   

Watches & Warnings

There are currently no watches in effect.